Weather observations for the past three days for
Flamingo Airport
Metric (Imperial)
Date Time (ast) Wind (kph) Vis. (km) Weather Sky Cond. Temperature (ºC) Relative Humidity Wind Chill (°C) Heat Index (°C) Pressure Precipitation (cm)
Air Dwpt 6 hour altimeter (cm) sea level (mb) 1 hr 3 hr 6 hr
Max. Min.
03 12:55 E 28 0.00 Partly Cloudy SCT024 32 24 63% 38 0 0.0
03 11:55 E 30 0.00 Partly Cloudy SCT023 32 24 63% 38 0 0.0
03 10:55 E 30 0.00 A Few Clouds FEW024 31 24 66% 37 0 0.0
03 09:55 E 31 0.00 A Few Clouds FEW024 31 23 62% 35 0 0.0
03 08:55 E 30 0.00 A Few Clouds FEW021 30 23 66% 34 0 0.0
03 07:55 E 30 0.00 A Few Clouds FEW020 29 23 70% 33 0 0.0
03 06:55 E 22 0.00 A Few Clouds FEW018 28 23 74% 31 0 0.0
03 05:55 E 22 0.00 NULL NULL 28 23 74% 31 0 0.0
03 04:55 E 20 0.00 NULL NULL 28 23 74% 31 0 0.0
03 03:55 E 24 0.00 NULL NULL 28 23 74% 31 0 0.0
03 02:55 E 22 0.00 NULL NULL 28 23 74% 31 0 0.0
03 01:55 E 26 0.00 NULL NULL 28 23 74% 31 0 0.0
03 00:55 E 26 0.00 NULL NULL 28 24 79% 32 0 0.0
02 23:55 E 24 0.00 NULL NULL 28 24 79% 32 0 0.0
02 22:55 E 24 0.00 NULL NULL 29 24 74% 34 0 0.0
02 21:55 E 22 0.00 NULL NULL 29 24 74% 34 0 0.0
02 20:55 E 26 0.00 A Few Clouds FEW016 29 25 79% 35 0 0.0
02 19:55 E 22 0.00 A Few Clouds FEW018 29 24 74% 34 0 0.0
02 18:55 E 26 0.00 A Few Clouds FEW019 29 24 74% 34 0 0.0
02 17:55 E 30 0.00 A Few Clouds FEW021 30 24 70% 35 0 0.0
02 16:55 E 30 0.00 Partly Cloudy SCT020 31 24 66% 37 0 0.0
02 15:55 E 28 0.00 Mostly Cloudy BKN020 31 24 66% 37 0 0.0
02 14:55 E 30 0.00 Partly Cloudy FEW017 SCT021 31 24 66% 37 0 0.0
02 13:55 E 30 0.00 Mostly Cloudy BKN020 32 24 63% 38 0 0.0
02 12:55 E 31 0.00 Mostly Cloudy BKN021 32 24 63% 38 0 0.0
02 11:55 E 30 0.00 Mostly Cloudy BKN021 32 24 63% 38 0 0.0
02 10:55 E 31 0.00 Partly Cloudy SCT022 31 24 66% 37 0 0.0
02 09:55 E 33 0.00 Partly Cloudy and Breezy SCT021 31 24 66% 37 0 0.0
02 08:55 E 30 0.00 A Few Clouds FEW020 31 24 66% 37 0 0.0
02 07:55 E 33 0.00 A Few Clouds and Breezy FEW019 30 25 75% 36 0 0.0
02 06:55 E 28 0.00 Partly Cloudy SCT018TCU 29 24 74% 34 0 0.0
02 05:55 E 20 0.00 NULL NULL 28 24 79% 32 0 0.0
02 04:55 E 22 0.00 NULL NULL 29 24 74% 34 0 0.0
02 03:55 E 22 0.00 NULL NULL 28 24 79% 32 0 0.0
02 02:55 E 28 0.00 NULL NULL 29 24 74% 34 0 0.0
02 01:55 E 26 0.00 NULL NULL 29 24 74% 34 0 0.0
02 00:55 E 24 0.00 NULL NULL 29 25 79% 35 0 0.0
01 23:55 E 30 0.00 NULL NULL 29 25 79% 35 0 0.0
01 22:55 E 26 0.00 NULL NULL 29 25 79% 35 0 0.0
01 21:55 E 24 0.00 NULL NULL 29 25 79% 35 0 0.0
01 20:55 E 28 0.00 A Few Clouds FEW019 29 24 74% 34 0 0.0
01 19:55 E 26 0.00 A Few Clouds FEW017 29 25 79% 35 0 0.0
01 18:55 E 31 0.00 Partly Cloudy SCT016 29 25 79% 35 0 0.0
01 17:55 E 35 0.00 Partly Cloudy and Breezy SCT019 30 25 75% 36 0 0.0
01 16:55 E 39 0.00 Partly Cloudy and Breezy SCT020 31 24 66% 37 0 0.0
01 15:55 E 37 0.00 Partly Cloudy and Breezy SCT020 31 24 66% 37 0 0.0
01 14:55 E 35 0.00 Partly Cloudy and Breezy SCT020 32 25 67% 39 0 0.0
01 13:55 E 35 0.00 Partly Cloudy and Breezy SCT019 32 25 67% 39 0 0.0
01 12:55 E 33 0.00 Partly Cloudy and Breezy SCT019 33 25 63% 41 0 0.0
01 11:55 E 31 0.00 Partly Cloudy SCT020 32 25 67% 39 0 0.0
01 10:55 E 33 0.00 Partly Cloudy and Breezy SCT020 32 25 67% 39 0 0.0
01 09:55 E 31 0.00 Partly Cloudy SCT020 32 25 67% 39 0 0.0
01 08:55 E 33 0.00 Partly Cloudy and Breezy SCT017 31 25 70% 38 0 0.0
01 07:55 E 35 0.00 A Few Clouds and Breezy FEW017 30 25 75% 36 0 0.0
01 06:55 E 26 0.00 A Few Clouds FEW016 29 25 79% 35 0 0.0
01 05:55 E 28 0.00 NULL NULL 29 25 79% 35 0 0.0
01 04:55 E 28 0.00 NULL NULL 29 25 79% 35 0 0.0
01 03:55 E 24 0.00 NULL NULL 29 25 79% 35 0 0.0
01 02:55 E 24 0.00 NULL NULL 29 25 79% 35 0 0.0
01 01:55 E 24 0.00 NULL NULL 29 25 79% 35 0 0.0
01 00:55 E 24 0.00 NULL NULL 29 25 79% 35 0 0.0
31 23:55 E 26 0.00 NULL NULL 29 25 79% 35 0 0.0
31 22:55 E 28 0.00 NULL NULL 29 25 79% 35 0 0.0
31 21:55 E 28 0.00 NULL NULL 29 25 79% 35 0 0.0
31 20:55 E 31 0.00 A Few Clouds FEW017 29 25 79% 35 0 0.0
31 18:55 E 31 0.00 A Few Clouds FEW018 29 25 79% 35 0 0.0
31 17:55 E 33 0.00 Partly Cloudy and Breezy SCT018 30 25 75% 36 0 0.0
31 16:55 E 33 0.00 A Few Clouds and Breezy FEW021 32 25 67% 39 0 0.0
31 15:55 E 26 0.00 A Few Clouds FEW021 32 24 63% 38 0 0.0
31 14:55 E 31 0.00 A Few Clouds FEW021 33 24 59% 39 0 0.0
31 13:55 E 31 0.00 A Few Clouds FEW020 32 24 63% 38 0 0.0
Date Time (ast) Wind (kph) Vis. (km) Weather Sky Cond. Air Dwpt Max. Min. Relative Humidity Wind Chill (°C) Heat Index (°C) altimeter (cm) sea level (mb) 1 hr 3 hr 6 hr
6 hour
Temperature (ºC) Pressure Precipitation (cm)